sensor_id;sensor_type;location;lat;lon;timestamp;temperature;humidity
14006;DHT22;7078;51.542;7.314;2024-03-29T00:01:37;8.60;99.90
14006;DHT22;7078;51.542;7.314;2024-03-29T00:04:02;8.60;99.90
14006;DHT22;7078;51.542;7.314;2024-03-29T00:06:28;8.60;99.90
14006;DHT22;7078;51.542;7.314;2024-03-29T00:08:53;8.60;99.90
14006;DHT22;7078;51.542;7.314;2024-03-29T00:11:18;8.60;99.90
14006;DHT22;7078;51.542;7.314;2024-03-29T00:13:44;8.60;99.90
14006;DHT22;7078;51.542;7.314;2024-03-29T00:16:09;8.60;99.90
14006;DHT22;7078;51.542;7.314;2024-03-29T00:18:37;8.60;99.90
14006;DHT22;7078;51.542;7.314;2024-03-29T00:21:02;8.70;99.90
14006;DHT22;7078;51.542;7.314;2024-03-29T00:23:28;8.70;99.90
14006;DHT22;7078;51.542;7.314;2024-03-29T00:25:53;8.70;99.90
14006;DHT22;7078;51.542;7.314;2024-03-29T00:28:23;8.70;99.90
14006;DHT22;7078;51.542;7.314;2024-03-29T00:30:48;8.70;99.90
14006;DHT22;7078;51.542;7.314;2024-03-29T00:33:14;8.70;99.90
14006;DHT22;7078;51.542;7.314;2024-03-29T00:35:39;8.70;99.90
14006;DHT22;7078;51.542;7.314;2024-03-29T00:38:05;8.70;99.90
14006;DHT22;7078;51.542;7.314;2024-03-29T00:40:30;8.70;99.90
14006;DHT22;7078;51.542;7.314;2024-03-29T00:42:56;8.70;99.90
14006;DHT22;7078;51.542;7.314;2024-03-29T00:45:21;8.60;99.90
14006;DHT22;7078;51.542;7.314;2024-03-29T00:47:47;8.70;99.90
14006;DHT22;7078;51.542;7.314;2024-03-29T00:50:12;8.70;99.90
14006;DHT22;7078;51.542;7.314;2024-03-29T00:52:38;8.70;99.90
14006;DHT22;7078;51.542;7.314;2024-03-29T00:55:04;8.80;99.90
14006;DHT22;7078;51.542;7.314;2024-03-29T00:57:30;8.80;99.90
14006;DHT22;7078;51.542;7.314;2024-03-29T00:59:56;8.80;99.90
14006;DHT22;7078;51.542;7.314;2024-03-29T01:02:22;8.90;99.90
14006;DHT22;7078;51.542;7.314;2024-03-29T01:04:49;8.90;99.90
14006;DHT22;7078;51.542;7.314;2024-03-29T01:07:14;8.90;99.90
14006;DHT22;7078;51.542;7.314;2024-03-29T01:09:42;8.90;99.90
14006;DHT22;7078;51.542;7.314;2024-03-29T01:12:09;8.90;99.90
14006;DHT22;7078;51.542;7.314;2024-03-29T01:14:34;8.90;99.90
14006;DHT22;7078;51.542;7.314;2024-03-29T01:17:00;8.90;99.90
14006;DHT22;7078;51.542;7.314;2024-03-29T01:19:25;8.90;99.90
14006;DHT22;7078;51.542;7.314;2024-03-29T01:21:51;8.90;99.90
14006;DHT22;7078;51.542;7.314;2024-03-29T01:24:16;8.80;99.90
14006;DHT22;7078;51.542;7.314;2024-03-29T01:26:43;8.80;99.90
14006;DHT22;7078;51.542;7.314;2024-03-29T01:29:10;8.80;99.90
14006;DHT22;7078;51.542;7.314;2024-03-29T01:31:36;8.70;99.90
14006;DHT22;7078;51.542;7.314;2024-03-29T01:34:02;8.70;99.90
14006;DHT22;7078;51.542;7.314;2024-03-29T01:36:28;8.70;99.90
14006;DHT22;7078;51.542;7.314;2024-03-29T01:38:54;8.70;99.90
14006;DHT22;7078;51.542;7.314;2024-03-29T01:41:22;8.70;99.90
14006;DHT22;7078;51.542;7.314;2024-03-29T01:43:49;8.70;99.90
14006;DHT22;7078;51.542;7.314;2024-03-29T01:46:17;8.70;99.90
14006;DHT22;7078;51.542;7.314;2024-03-29T01:48:44;8.80;99.90
14006;DHT22;7078;51.542;7.314;2024-03-29T01:51:12;8.80;99.90
14006;DHT22;7078;51.542;7.314;2024-03-29T01:53:38;8.80;99.90
14006;DHT22;7078;51.542;7.314;2024-03-29T01:56:04;8.80;99.90
14006;DHT22;7078;51.542;7.314;2024-03-29T01:58:30;8.90;99.90
14006;DHT22;7078;51.542;7.314;2024-03-29T02:00:58;8.90;99.90
14006;DHT22;7078;51.542;7.314;2024-03-29T02:03:24;8.80;99.90
14006;DHT22;7078;51.542;7.314;2024-03-29T02:05:50;8.80;99.90
14006;DHT22;7078;51.542;7.314;2024-03-29T02:08:16;8.90;99.90
14006;DHT22;7078;51.542;7.314;2024-03-29T02:10:43;8.90;99.90
14006;DHT22;7078;51.542;7.314;2024-03-29T02:13:09;8.90;99.90
14006;DHT22;7078;51.542;7.314;2024-03-29T02:15:34;8.90;99.90
14006;DHT22;7078;51.542;7.314;2024-03-29T02:18:00;9.00;99.90
14006;DHT22;7078;51.542;7.314;2024-03-29T02:20:26;9.00;99.90
14006;DHT22;7078;51.542;7.314;2024-03-29T02:22:55;9.10;99.90
14006;DHT22;7078;51.542;7.314;2024-03-29T02:25:21;9.20;99.90
14006;DHT22;7078;51.542;7.314;2024-03-29T02:27:47;9.20;99.90
14006;DHT22;7078;51.542;7.314;2024-03-29T02:30:14;9.20;99.90
14006;DHT22;7078;51.542;7.314;2024-03-29T02:32:41;9.30;99.90
14006;DHT22;7078;51.542;7.314;2024-03-29T02:35:06;9.30;99.90
14006;DHT22;7078;51.542;7.314;2024-03-29T02:37:32;9.30;99.90
14006;DHT22;7078;51.542;7.314;2024-03-29T02:39:57;9.40;99.90
14006;DHT22;7078;51.542;7.314;2024-03-29T02:42:23;9.40;99.90
14006;DHT22;7078;51.542;7.314;2024-03-29T02:44:48;9.50;99.90
14006;DHT22;7078;51.542;7.314;2024-03-29T02:47:14;9.40;99.90
14006;DHT22;7078;51.542;7.314;2024-03-29T02:49:39;9.50;99.90
14006;DHT22;7078;51.542;7.314;2024-03-29T02:52:05;9.50;99.90
14006;DHT22;7078;51.542;7.314;2024-03-29T02:54:31;9.50;99.90
14006;DHT22;7078;51.542;7.314;2024-03-29T02:56:56;9.50;99.90
14006;DHT22;7078;51.542;7.314;2024-03-29T02:59:22;9.50;99.90
14006;DHT22;7078;51.542;7.314;2024-03-29T03:01:47;9.50;99.90
14006;DHT22;7078;51.542;7.314;2024-03-29T03:04:13;9.60;99.80
14006;DHT22;7078;51.542;7.314;2024-03-29T03:06:38;9.60;99.30
14006;DHT22;7078;51.542;7.314;2024-03-29T03:09:04;9.70;97.20
14006;DHT22;7078;51.542;7.314;2024-03-29T03:11:48;9.90;95.70
14006;DHT22;7078;51.542;7.314;2024-03-29T03:14:14;10.00;94.90
14006;DHT22;7078;51.542;7.314;2024-03-29T03:16:40;10.10;94.10
14006;DHT22;7078;51.542;7.314;2024-03-29T03:19:05;10.20;93.70
14006;DHT22;7078;51.542;7.314;2024-03-29T03:21:31;10.20;94.30
14006;DHT22;7078;51.542;7.314;2024-03-29T03:23:56;10.20;93.90
14006;DHT22;7078;51.542;7.314;2024-03-29T03:26:22;10.20;93.60
14006;DHT22;7078;51.542;7.314;2024-03-29T03:28:47;10.30;94.50
14006;DHT22;7078;51.542;7.314;2024-03-29T03:31:13;10.30;95.80
14006;DHT22;7078;51.542;7.314;2024-03-29T03:33:38;10.30;97.80
14006;DHT22;7078;51.542;7.314;2024-03-29T03:36:05;10.20;98.40
14006;DHT22;7078;51.542;7.314;2024-03-29T03:38:31;10.20;99.10
14006;DHT22;7078;51.542;7.314;2024-03-29T03:40:56;10.20;99.90
14006;DHT22;7078;51.542;7.314;2024-03-29T03:43:22;10.10;99.90
14006;DHT22;7078;51.542;7.314;2024-03-29T03:45:47;10.10;99.90
14006;DHT22;7078;51.542;7.314;2024-03-29T03:48:13;10.00;99.90
14006;DHT22;7078;51.542;7.314;2024-03-29T03:50:38;10.10;99.90
14006;DHT22;7078;51.542;7.314;2024-03-29T03:53:04;10.00;99.90
14006;DHT22;7078;51.542;7.314;2024-03-29T03:55:30;10.00;99.90
14006;DHT22;7078;51.542;7.314;2024-03-29T03:57:55;9.90;99.90
14006;DHT22;7078;51.542;7.314;2024-03-29T04:00:22;9.90;99.90
14006;DHT22;7078;51.542;7.314;2024-03-29T04:02:49;9.90;99.90
14006;DHT22;7078;51.542;7.314;2024-03-29T04:05:18;9.80;99.90
14006;DHT22;7078;51.542;7.314;2024-03-29T04:07:44;9.80;99.90
14006;DHT22;7078;51.542;7.314;2024-03-29T04:10:10;9.80;99.90
14006;DHT22;7078;51.542;7.314;2024-03-29T04:12:35;9.70;99.90
14006;DHT22;7078;51.542;7.314;2024-03-29T04:15:01;9.70;99.90
14006;DHT22;7078;51.542;7.314;2024-03-29T04:17:29;9.70;99.90
14006;DHT22;7078;51.542;7.314;2024-03-29T04:19:59;9.60;99.90
14006;DHT22;7078;51.542;7.314;2024-03-29T04:22:27;9.60;99.90
14006;DHT22;7078;51.542;7.314;2024-03-29T04:24:53;9.50;99.90
14006;DHT22;7078;51.542;7.314;2024-03-29T04:27:18;9.50;99.90
14006;DHT22;7078;51.542;7.314;2024-03-29T04:29:44;9.40;99.90
14006;DHT22;7078;51.542;7.314;2024-03-29T04:32:09;9.30;99.90
14006;DHT22;7078;51.542;7.314;2024-03-29T04:34:35;9.20;99.90
14006;DHT22;7078;51.542;7.314;2024-03-29T04:37:00;9.20;99.90
14006;DHT22;7078;51.542;7.314;2024-03-29T04:39:27;9.20;99.90
14006;DHT22;7078;51.542;7.314;2024-03-29T04:41:55;9.20;99.90
14006;DHT22;7078;51.542;7.314;2024-03-29T04:44:24;9.10;99.90
14006;DHT22;7078;51.542;7.314;2024-03-29T04:46:51;9.10;99.90
14006;DHT22;7078;51.542;7.314;2024-03-29T04:49:19;9.10;99.90
14006;DHT22;7078;51.542;7.314;2024-03-29T04:51:51;9.00;99.90
14006;DHT22;7078;51.542;7.314;2024-03-29T04:54:17;9.00;99.90
14006;DHT22;7078;51.542;7.314;2024-03-29T04:56:42;8.90;99.90
14006;DHT22;7078;51.542;7.314;2024-03-29T04:59:08;8.90;99.90
14006;DHT22;7078;51.542;7.314;2024-03-29T05:01:35;8.80;99.90
14006;DHT22;7078;51.542;7.314;2024-03-29T05:04:01;8.80;99.90
14006;DHT22;7078;51.542;7.314;2024-03-29T05:06:27;8.70;99.90
14006;DHT22;7078;51.542;7.314;2024-03-29T05:08:52;8.60;99.90
14006;DHT22;7078;51.542;7.314;2024-03-29T05:11:19;8.60;99.90
14006;DHT22;7078;51.542;7.314;2024-03-29T05:13:45;8.50;99.90
14006;DHT22;7078;51.542;7.314;2024-03-29T05:16:10;8.50;99.90
14006;DHT22;7078;51.542;7.314;2024-03-29T05:18:36;8.50;99.90
14006;DHT22;7078;51.542;7.314;2024-03-29T05:21:02;8.50;99.90
14006;DHT22;7078;51.542;7.314;2024-03-29T05:23:27;8.50;99.90
14006;DHT22;7078;51.542;7.314;2024-03-29T05:25:53;8.40;99.90
14006;DHT22;7078;51.542;7.314;2024-03-29T05:28:18;8.40;99.90
14006;DHT22;7078;51.542;7.314;2024-03-29T05:30:44;8.30;99.90
14006;DHT22;7078;51.542;7.314;2024-03-29T05:33:09;8.30;99.90
14006;DHT22;7078;51.542;7.314;2024-03-29T05:35:35;8.30;99.90
14006;DHT22;7078;51.542;7.314;2024-03-29T05:38:01;8.30;99.90
14006;DHT22;7078;51.542;7.314;2024-03-29T05:40:27;8.20;99.90
14006;DHT22;7078;51.542;7.314;2024-03-29T05:42:53;8.20;99.90
14006;DHT22;7078;51.542;7.314;2024-03-29T05:45:26;8.20;99.90
14006;DHT22;7078;51.542;7.314;2024-03-29T05:47:54;8.10;99.90
14006;DHT22;7078;51.542;7.314;2024-03-29T05:50:20;8.20;99.90
14006;DHT22;7078;51.542;7.314;2024-03-29T05:52:46;8.20;99.90
14006;DHT22;7078;51.542;7.314;2024-03-29T05:55:12;8.10;99.90
14006;DHT22;7078;51.542;7.314;2024-03-29T05:57:37;8.20;99.90
14006;DHT22;7078;51.542;7.314;2024-03-29T06:00:11;8.20;99.90
14006;DHT22;7078;51.542;7.314;2024-03-29T06:02:37;8.10;99.90
14006;DHT22;7078;51.542;7.314;2024-03-29T06:05:03;8.20;99.90
14006;DHT22;7078;51.542;7.314;2024-03-29T06:07:30;8.20;99.90
14006;DHT22;7078;51.542;7.314;2024-03-29T06:09:58;8.10;99.90
14006;DHT22;7078;51.542;7.314;2024-03-29T06:12:24;8.10;99.90
14006;DHT22;7078;51.542;7.314;2024-03-29T06:14:50;8.10;99.90
14006;DHT22;7078;51.542;7.314;2024-03-29T06:17:34;8.20;99.90
14006;DHT22;7078;51.542;7.314;2024-03-29T06:20:01;8.10;99.90
14006;DHT22;7078;51.542;7.314;2024-03-29T06:22:28;8.20;99.90
14006;DHT22;7078;51.542;7.314;2024-03-29T06:24:56;8.20;99.90
14006;DHT22;7078;51.542;7.314;2024-03-29T06:27:25;8.20;99.90
14006;DHT22;7078;51.542;7.314;2024-03-29T06:29:50;8.20;99.90
14006;DHT22;7078;51.542;7.314;2024-03-29T06:32:16;8.20;99.90
14006;DHT22;7078;51.542;7.314;2024-03-29T06:34:46;8.20;99.90
14006;DHT22;7078;51.542;7.314;2024-03-29T06:37:12;8.10;99.90
14006;DHT22;7078;51.542;7.314;2024-03-29T06:39:37;8.10;99.90
14006;DHT22;7078;51.542;7.314;2024-03-29T06:42:03;8.30;99.90
14006;DHT22;7078;51.542;7.314;2024-03-29T06:44:29;8.60;99.90
14006;DHT22;7078;51.542;7.314;2024-03-29T06:46:54;8.90;99.90
14006;DHT22;7078;51.542;7.314;2024-03-29T06:49:20;9.00;99.90
14006;DHT22;7078;51.542;7.314;2024-03-29T06:51:45;9.10;99.90
14006;DHT22;7078;51.542;7.314;2024-03-29T06:54:11;9.20;99.90
14006;DHT22;7078;51.542;7.314;2024-03-29T06:56:36;9.20;99.90
14006;DHT22;7078;51.542;7.314;2024-03-29T06:59:02;9.20;99.90
14006;DHT22;7078;51.542;7.314;2024-03-29T07:01:27;9.20;99.90
14006;DHT22;7078;51.542;7.314;2024-03-29T07:03:53;9.10;99.90
14006;DHT22;7078;51.542;7.314;2024-03-29T07:06:18;9.10;99.90
14006;DHT22;7078;51.542;7.314;2024-03-29T07:08:44;9.10;99.90
14006;DHT22;7078;51.542;7.314;2024-03-29T07:11:09;9.10;99.90
14006;DHT22;7078;51.542;7.314;2024-03-29T07:13:38;8.90;99.90
14006;DHT22;7078;51.542;7.314;2024-03-29T07:16:04;9.20;99.90
14006;DHT22;7078;51.542;7.314;2024-03-29T07:18:29;9.20;99.90
14006;DHT22;7078;51.542;7.314;2024-03-29T07:20:55;9.10;99.90
14006;DHT22;7078;51.542;7.314;2024-03-29T07:23:21;9.10;99.90
14006;DHT22;7078;51.542;7.314;2024-03-29T07:26:07;9.10;99.90
14006;DHT22;7078;51.542;7.314;2024-03-29T07:28:32;9.20;99.90
14006;DHT22;7078;51.542;7.314;2024-03-29T07:31:05;9.30;99.90
14006;DHT22;7078;51.542;7.314;2024-03-29T07:33:31;9.40;99.90
14006;DHT22;7078;51.542;7.314;2024-03-29T07:35:57;9.40;99.90
14006;DHT22;7078;51.542;7.314;2024-03-29T07:38:23;9.50;99.90
14006;DHT22;7078;51.542;7.314;2024-03-29T07:40:49;9.60;99.90
14006;DHT22;7078;51.542;7.314;2024-03-29T07:43:15;9.70;99.90
14006;DHT22;7078;51.542;7.314;2024-03-29T07:45:44;9.70;99.90
14006;DHT22;7078;51.542;7.314;2024-03-29T07:48:12;9.80;99.90
14006;DHT22;7078;51.542;7.314;2024-03-29T07:50:39;9.80;99.90
14006;DHT22;7078;51.542;7.314;2024-03-29T07:53:04;9.90;99.90
14006;DHT22;7078;51.542;7.314;2024-03-29T07:55:30;9.90;99.90
14006;DHT22;7078;51.542;7.314;2024-03-29T07:57:55;9.90;99.90
14006;DHT22;7078;51.542;7.314;2024-03-29T08:00:21;10.00;99.90
14006;DHT22;7078;51.542;7.314;2024-03-29T08:02:47;10.00;99.90
14006;DHT22;7078;51.542;7.314;2024-03-29T08:05:13;10.00;99.90
14006;DHT22;7078;51.542;7.314;2024-03-29T08:07:39;10.00;99.90
14006;DHT22;7078;51.542;7.314;2024-03-29T08:10:04;10.00;99.90
14006;DHT22;7078;51.542;7.314;2024-03-29T08:12:31;10.10;99.90
14006;DHT22;7078;51.542;7.314;2024-03-29T08:14:58;10.10;99.90
14006;DHT22;7078;51.542;7.314;2024-03-29T08:17:24;10.10;99.90
14006;DHT22;7078;51.542;7.314;2024-03-29T08:19:50;10.20;99.90
14006;DHT22;7078;51.542;7.314;2024-03-29T08:22:15;10.20;99.90
14006;DHT22;7078;51.542;7.314;2024-03-29T08:24:41;10.20;99.90
14006;DHT22;7078;51.542;7.314;2024-03-29T08:27:07;10.30;99.90
14006;DHT22;7078;51.542;7.314;2024-03-29T08:29:32;10.30;99.90
14006;DHT22;7078;51.542;7.314;2024-03-29T08:31:58;10.30;99.90
14006;DHT22;7078;51.542;7.314;2024-03-29T08:34:23;10.30;99.90
14006;DHT22;7078;51.542;7.314;2024-03-29T08:36:49;10.30;99.90
14006;DHT22;7078;51.542;7.314;2024-03-29T08:39:15;10.30;99.90
14006;DHT22;7078;51.542;7.314;2024-03-29T08:41:42;10.30;99.90
14006;DHT22;7078;51.542;7.314;2024-03-29T08:44:07;10.40;99.90
14006;DHT22;7078;51.542;7.314;2024-03-29T08:46:33;10.50;99.90
14006;DHT22;7078;51.542;7.314;2024-03-29T08:48:58;10.50;99.90
14006;DHT22;7078;51.542;7.314;2024-03-29T08:51:24;10.60;99.90
14006;DHT22;7078;51.542;7.314;2024-03-29T08:53:49;10.60;99.90
14006;DHT22;7078;51.542;7.314;2024-03-29T08:56:15;10.70;99.90
14006;DHT22;7078;51.542;7.314;2024-03-29T08:58:41;10.80;99.90
14006;DHT22;7078;51.542;7.314;2024-03-29T09:01:06;10.70;99.90
14006;DHT22;7078;51.542;7.314;2024-03-29T09:03:32;10.70;99.90
14006;DHT22;7078;51.542;7.314;2024-03-29T09:05:58;10.70;99.90
14006;DHT22;7078;51.542;7.314;2024-03-29T09:08:23;10.80;99.90
14006;DHT22;7078;51.542;7.314;2024-03-29T09:10:49;10.80;99.90
14006;DHT22;7078;51.542;7.314;2024-03-29T09:13:14;10.80;99.90
14006;DHT22;7078;51.542;7.314;2024-03-29T09:15:40;10.80;99.90
14006;DHT22;7078;51.542;7.314;2024-03-29T09:18:06;10.90;99.90
14006;DHT22;7078;51.542;7.314;2024-03-29T09:20:59;11.10;99.90
14006;DHT22;7078;51.542;7.314;2024-03-29T09:23:26;11.20;99.90
14006;DHT22;7078;51.542;7.314;2024-03-29T09:25:53;11.20;99.90
14006;DHT22;7078;51.542;7.314;2024-03-29T09:28:19;11.20;99.90
14006;DHT22;7078;51.542;7.314;2024-03-29T09:30:46;11.30;99.90
14006;DHT22;7078;51.542;7.314;2024-03-29T09:33:12;11.30;99.90
14006;DHT22;7078;51.542;7.314;2024-03-29T09:35:38;11.30;99.90
14006;DHT22;7078;51.542;7.314;2024-03-29T09:38:03;11.40;99.90
14006;DHT22;7078;51.542;7.314;2024-03-29T09:40:29;11.60;99.90
14006;DHT22;7078;51.542;7.314;2024-03-29T09:42:56;11.70;99.90
14006;DHT22;7078;51.542;7.314;2024-03-29T09:45:30;11.70;99.90
14006;DHT22;7078;51.542;7.314;2024-03-29T09:47:59;11.80;99.90
14006;DHT22;7078;51.542;7.314;2024-03-29T09:50:25;11.80;99.90
14006;DHT22;7078;51.542;7.314;2024-03-29T09:52:51;11.90;99.90
14006;DHT22;7078;51.542;7.314;2024-03-29T09:55:18;12.00;99.90
14006;DHT22;7078;51.542;7.314;2024-03-29T09:57:45;12.10;99.90
14006;DHT22;7078;51.542;7.314;2024-03-29T10:00:12;12.20;99.90
14006;DHT22;7078;51.542;7.314;2024-03-29T10:02:38;12.10;99.90
14006;DHT22;7078;51.542;7.314;2024-03-29T10:05:06;12.20;99.90
14006;DHT22;7078;51.542;7.314;2024-03-29T10:07:33;12.20;99.90
14006;DHT22;7078;51.542;7.314;2024-03-29T10:10:01;12.30;99.90
14006;DHT22;7078;51.542;7.314;2024-03-29T10:12:28;12.40;99.90
14006;DHT22;7078;51.542;7.314;2024-03-29T10:14:54;12.40;99.90
14006;DHT22;7078;51.542;7.314;2024-03-29T10:17:20;12.50;99.90
14006;DHT22;7078;51.542;7.314;2024-03-29T10:19:46;12.50;99.90
14006;DHT22;7078;51.542;7.314;2024-03-29T10:22:12;12.60;99.90
14006;DHT22;7078;51.542;7.314;2024-03-29T10:24:38;12.60;99.90
14006;DHT22;7078;51.542;7.314;2024-03-29T10:27:04;12.70;99.90
14006;DHT22;7078;51.542;7.314;2024-03-29T10:29:30;12.80;99.90
14006;DHT22;7078;51.542;7.314;2024-03-29T10:31:56;12.90;99.90
14006;DHT22;7078;51.542;7.314;2024-03-29T10:34:26;13.00;99.90
14006;DHT22;7078;51.542;7.314;2024-03-29T10:36:51;13.00;99.90
14006;DHT22;7078;51.542;7.314;2024-03-29T10:39:17;13.10;99.90
14006;DHT22;7078;51.542;7.314;2024-03-29T10:41:46;13.10;99.90
14006;DHT22;7078;51.542;7.314;2024-03-29T10:44:13;13.10;99.90
14006;DHT22;7078;51.542;7.314;2024-03-29T10:46:40;13.10;99.90
14006;DHT22;7078;51.542;7.314;2024-03-29T10:49:07;13.10;99.90
14006;DHT22;7078;51.542;7.314;2024-03-29T10:51:53;13.10;99.90
14006;DHT22;7078;51.542;7.314;2024-03-29T10:54:22;13.10;99.90
14006;DHT22;7078;51.542;7.314;2024-03-29T10:56:59;13.10;99.90
14006;DHT22;7078;51.542;7.314;2024-03-29T10:59:37;13.10;99.90
14006;DHT22;7078;51.542;7.314;2024-03-29T11:02:13;13.20;99.90
14006;DHT22;7078;51.542;7.314;2024-03-29T11:04:41;13.20;99.90
14006;DHT22;7078;51.542;7.314;2024-03-29T11:07:17;13.20;99.90
14006;DHT22;7078;51.542;7.314;2024-03-29T11:09:46;13.20;99.90
14006;DHT22;7078;51.542;7.314;2024-03-29T11:12:14;13.30;99.90
14006;DHT22;7078;51.542;7.314;2024-03-29T11:14:45;13.40;99.90
14006;DHT22;7078;51.542;7.314;2024-03-29T11:17:13;13.50;99.90
14006;DHT22;7078;51.542;7.314;2024-03-29T11:19:39;13.60;99.90
14006;DHT22;7078;51.542;7.314;2024-03-29T11:22:05;13.60;99.90
14006;DHT22;7078;51.542;7.314;2024-03-29T11:24:32;13.80;99.90
14006;DHT22;7078;51.542;7.314;2024-03-29T11:27:09;14.00;99.90
14006;DHT22;7078;51.542;7.314;2024-03-29T11:29:35;14.20;99.90
14006;DHT22;7078;51.542;7.314;2024-03-29T11:32:06;14.20;99.90
14006;DHT22;7078;51.542;7.314;2024-03-29T11:34:31;14.20;99.90
14006;DHT22;7078;51.542;7.314;2024-03-29T11:37:09;14.20;99.90
14006;DHT22;7078;51.542;7.314;2024-03-29T11:39:35;14.30;99.90
14006;DHT22;7078;51.542;7.314;2024-03-29T11:42:01;14.50;99.90
14006;DHT22;7078;51.542;7.314;2024-03-29T11:44:27;14.60;99.90
14006;DHT22;7078;51.542;7.314;2024-03-29T11:46:57;14.80;99.90
14006;DHT22;7078;51.542;7.314;2024-03-29T11:49:23;14.90;99.90
14006;DHT22;7078;51.542;7.314;2024-03-29T11:51:48;15.10;99.90
14006;DHT22;7078;51.542;7.314;2024-03-29T11:54:14;15.30;99.90
14006;DHT22;7078;51.542;7.314;2024-03-29T11:56:39;15.50;99.90
14006;DHT22;7078;51.542;7.314;2024-03-29T11:59:05;15.50;99.90
14006;DHT22;7078;51.542;7.314;2024-03-29T12:01:31;15.50;99.90
14006;DHT22;7078;51.542;7.314;2024-03-29T12:03:58;15.40;99.90
14006;DHT22;7078;51.542;7.314;2024-03-29T12:06:24;15.40;99.90
14006;DHT22;7078;51.542;7.314;2024-03-29T12:08:50;15.40;99.90
14006;DHT22;7078;51.542;7.314;2024-03-29T12:11:18;15.40;99.90
14006;DHT22;7078;51.542;7.314;2024-03-29T12:13:44;15.30;99.90
14006;DHT22;7078;51.542;7.314;2024-03-29T12:16:10;15.20;99.90
14006;DHT22;7078;51.542;7.314;2024-03-29T12:18:36;15.20;99.90
14006;DHT22;7078;51.542;7.314;2024-03-29T12:21:02;15.00;99.90
14006;DHT22;7078;51.542;7.314;2024-03-29T12:23:28;15.00;99.90
14006;DHT22;7078;51.542;7.314;2024-03-29T12:25:55;14.90;99.90
14006;DHT22;7078;51.542;7.314;2024-03-29T12:28:23;14.80;99.90
14006;DHT22;7078;51.542;7.314;2024-03-29T12:30:49;14.90;99.90
14006;DHT22;7078;51.542;7.314;2024-03-29T12:33:16;14.90;99.90
14006;DHT22;7078;51.542;7.314;2024-03-29T12:35:43;14.90;99.90
14006;DHT22;7078;51.542;7.314;2024-03-29T12:38:15;14.90;99.90
14006;DHT22;7078;51.542;7.314;2024-03-29T12:40:42;15.10;99.90
14006;DHT22;7078;51.542;7.314;2024-03-29T12:43:13;15.00;99.90
14006;DHT22;7078;51.542;7.314;2024-03-29T12:45:40;15.00;99.90
14006;DHT22;7078;51.542;7.314;2024-03-29T12:48:35;15.00;99.90
14006;DHT22;7078;51.542;7.314;2024-03-29T12:51:00;15.10;99.90
14006;DHT22;7078;51.542;7.314;2024-03-29T12:53:28;15.10;99.90
14006;DHT22;7078;51.542;7.314;2024-03-29T12:55:53;15.10;99.90
14006;DHT22;7078;51.542;7.314;2024-03-29T12:58:19;15.20;99.90
14006;DHT22;7078;51.542;7.314;2024-03-29T13:00:47;15.10;99.90
14006;DHT22;7078;51.542;7.314;2024-03-29T13:03:13;15.20;99.90
14006;DHT22;7078;51.542;7.314;2024-03-29T13:05:40;15.20;99.10
14006;DHT22;7078;51.542;7.314;2024-03-29T13:08:08;15.10;98.80
14006;DHT22;7078;51.542;7.314;2024-03-29T13:10:36;15.20;98.90
14006;DHT22;7078;51.542;7.314;2024-03-29T13:13:02;15.20;97.70
14006;DHT22;7078;51.542;7.314;2024-03-29T13:15:28;15.30;95.00
14006;DHT22;7078;51.542;7.314;2024-03-29T13:17:55;15.20;95.30
14006;DHT22;7078;51.542;7.314;2024-03-29T13:20:22;15.30;96.40
14006;DHT22;7078;51.542;7.314;2024-03-29T13:22:49;15.20;94.00
14006;DHT22;7078;51.542;7.314;2024-03-29T13:25:18;15.30;94.80
14006;DHT22;7078;51.542;7.314;2024-03-29T13:27:46;15.30;97.80
14006;DHT22;7078;51.542;7.314;2024-03-29T13:30:13;15.20;99.30
14006;DHT22;7078;51.542;7.314;2024-03-29T13:32:41;15.30;99.90
14006;DHT22;7078;51.542;7.314;2024-03-29T13:35:10;15.40;99.90
14006;DHT22;7078;51.542;7.314;2024-03-29T13:37:43;15.40;99.70
14006;DHT22;7078;51.542;7.314;2024-03-29T13:40:09;15.40;95.70
14006;DHT22;7078;51.542;7.314;2024-03-29T13:42:36;15.50;99.20
14006;DHT22;7078;51.542;7.314;2024-03-29T13:45:03;15.60;98.70
14006;DHT22;7078;51.542;7.314;2024-03-29T13:47:29;15.60;99.90
14006;DHT22;7078;51.542;7.314;2024-03-29T13:49:56;15.70;97.60
14006;DHT22;7078;51.542;7.314;2024-03-29T13:52:22;15.70;96.20
14006;DHT22;7078;51.542;7.314;2024-03-29T13:54:47;15.80;99.40
14006;DHT22;7078;51.542;7.314;2024-03-29T13:57:17;15.90;98.30
14006;DHT22;7078;51.542;7.314;2024-03-29T13:59:45;15.70;99.90
14006;DHT22;7078;51.542;7.314;2024-03-29T14:02:12;15.60;99.90
14006;DHT22;7078;51.542;7.314;2024-03-29T14:04:39;15.40;99.90
14006;DHT22;7078;51.542;7.314;2024-03-29T14:07:05;15.30;99.90
14006;DHT22;7078;51.542;7.314;2024-03-29T14:09:34;15.50;99.90
14006;DHT22;7078;51.542;7.314;2024-03-29T14:12:00;15.60;99.90
14006;DHT22;7078;51.542;7.314;2024-03-29T14:14:25;15.70;99.90
14006;DHT22;7078;51.542;7.314;2024-03-29T14:16:51;15.80;99.90
14006;DHT22;7078;51.542;7.314;2024-03-29T14:19:16;15.80;99.90
14006;DHT22;7078;51.542;7.314;2024-03-29T14:21:42;15.60;99.90
14006;DHT22;7078;51.542;7.314;2024-03-29T14:24:07;15.50;99.90
14006;DHT22;7078;51.542;7.314;2024-03-29T14:26:33;15.50;99.90
14006;DHT22;7078;51.542;7.314;2024-03-29T14:28:58;15.50;99.90
14006;DHT22;7078;51.542;7.314;2024-03-29T14:31:29;15.50;99.90
14006;DHT22;7078;51.542;7.314;2024-03-29T14:33:54;15.50;99.90
14006;DHT22;7078;51.542;7.314;2024-03-29T14:36:20;15.50;99.90
14006;DHT22;7078;51.542;7.314;2024-03-29T14:38:45;15.40;99.90
14006;DHT22;7078;51.542;7.314;2024-03-29T14:41:11;15.40;99.90
14006;DHT22;7078;51.542;7.314;2024-03-29T14:43:36;15.50;99.90
14006;DHT22;7078;51.542;7.314;2024-03-29T14:46:02;15.60;99.90
14006;DHT22;7078;51.542;7.314;2024-03-29T14:48:28;15.60;99.90
14006;DHT22;7078;51.542;7.314;2024-03-29T14:50:53;15.70;99.90
14006;DHT22;7078;51.542;7.314;2024-03-29T14:53:21;15.80;99.90
14006;DHT22;7078;51.542;7.314;2024-03-29T14:55:47;15.70;99.90
14006;DHT22;7078;51.542;7.314;2024-03-29T14:58:12;15.60;99.90
14006;DHT22;7078;51.542;7.314;2024-03-29T15:00:38;15.60;99.90
14006;DHT22;7078;51.542;7.314;2024-03-29T15:03:04;15.60;99.90
14006;DHT22;7078;51.542;7.314;2024-03-29T15:05:29;15.60;99.90
14006;DHT22;7078;51.542;7.314;2024-03-29T15:07:55;15.70;99.90
14006;DHT22;7078;51.542;7.314;2024-03-29T15:10:21;15.90;99.90
14006;DHT22;7078;51.542;7.314;2024-03-29T15:12:47;16.00;99.90
14006;DHT22;7078;51.542;7.314;2024-03-29T15:15:13;16.00;99.90
14006;DHT22;7078;51.542;7.314;2024-03-29T15:17:38;16.00;99.90
14006;DHT22;7078;51.542;7.314;2024-03-29T15:20:05;15.90;99.90
14006;DHT22;7078;51.542;7.314;2024-03-29T15:22:32;15.70;99.90
14006;DHT22;7078;51.542;7.314;2024-03-29T15:24:59;15.50;99.90
14006;DHT22;7078;51.542;7.314;2024-03-29T15:27:25;15.40;99.90
14006;DHT22;7078;51.542;7.314;2024-03-29T15:30:10;15.20;99.90
14006;DHT22;7078;51.542;7.314;2024-03-29T15:32:35;15.10;99.90
14006;DHT22;7078;51.542;7.314;2024-03-29T15:35:01;15.00;99.90
14006;DHT22;7078;51.542;7.314;2024-03-29T15:37:27;14.90;99.90
14006;DHT22;7078;51.542;7.314;2024-03-29T15:39:53;14.80;99.90
14006;DHT22;7078;51.542;7.314;2024-03-29T15:42:18;14.80;99.90
14006;DHT22;7078;51.542;7.314;2024-03-29T15:44:44;14.70;99.90
14006;DHT22;7078;51.542;7.314;2024-03-29T15:47:10;14.70;99.90
14006;DHT22;7078;51.542;7.314;2024-03-29T15:49:38;14.80;99.90